Time;durP1;ratioP1;P1;durP2;ratioP2;P2;SDS_P1;SDS_P2;PMS_P1;PMS_P2;Temp;Humidity;BMP_temperature;BMP_pressure;BME280_temperature;BME280_humidity;BME280_pressure;Samples;Min_cycle;Max_cycle;Signal;HPM_P1;HPM_P2
2021/05/08 00:00:00;;;;;;;8.13;5.47;;;;;;;3.78;69.09;100009.25;5085224;28;20055;-64
2021/05/08 00:02:26;;;;;;;10.68;5.30;;;;;;;3.78;69.34;100009.25;5085348;28;20036;-65
2021/05/08 00:04:51;;;;;;;9.05;5.40;;;;;;;3.82;69.75;100011.00;5085534;28;20453;-65
2021/05/08 00:07:17;;;;;;;9.40;5.55;;;;;;;3.88;69.89;100007.69;5085383;28;20033;-65
2021/05/08 00:09:42;;;;;;;7.70;5.55;;;;;;;3.92;69.93;100002.59;5085206;28;20055;-66
2021/05/08 00:12:08;;;;;;;7.30;5.57;;;;;;;3.99;69.92;100008.69;5085551;28;20024;-65
2021/05/08 00:14:34;;;;;;;7.55;5.97;;;;;;;3.99;69.63;100012.94;5085382;28;20032;-66
2021/05/08 00:16:59;;;;;;;8.25;4.85;;;;;;;3.90;69.36;100004.28;5085092;28;20028;-65
2021/05/08 00:19:24;;;;;;;8.57;5.80;;;;;;;3.83;69.33;100007.63;5085269;28;20413;-65
2021/05/08 00:21:51;;;;;;;10.85;6.72;;;;;;;3.76;69.34;100013.50;5085187;28;20027;-64
2021/05/08 00:24:16;;;;;;;10.38;5.95;;;;;;;3.64;69.62;100002.25;5085036;28;20196;-65
2021/05/08 00:26:42;;;;;;;9.38;6.43;;;;;;;3.51;69.77;99998.66;5083568;28;20035;-65
2021/05/08 00:29:07;;;;;;;10.27;6.22;;;;;;;3.43;70.25;99998.53;5084600;28;20118;-65
2021/05/08 00:31:33;;;;;;;9.32;5.80;;;;;;;3.30;70.21;99999.19;5083024;28;20074;-65
2021/05/08 00:33:58;;;;;;;8.35;6.32;;;;;;;3.24;70.55;100001.66;5084452;28;20024;-64
2021/05/08 00:36:24;;;;;;;10.30;6.30;;;;;;;3.20;70.78;100006.75;5084384;28;20059;-66
2021/05/08 00:38:49;;;;;;;12.52;7.00;;;;;;;3.18;71.10;100008.41;5084303;28;20025;-65
2021/05/08 00:41:15;;;;;;;9.40;6.40;;;;;;;3.16;71.30;100009.25;5084366;28;20035;-65
2021/05/08 00:43:40;;;;;;;8.15;5.80;;;;;;;3.13;71.66;100007.47;5084278;28;20028;-65
2021/05/08 00:46:06;;;;;;;9.40;6.13;;;;;;;3.12;71.88;100005.75;5084075;28;20032;-64
2021/05/08 00:48:32;;;;;;;9.35;5.93;;;;;;;3.11;72.09;100006.59;5084109;28;20051;-65
2021/05/08 00:50:58;;;;;;;10.45;6.50;;;;;;;3.09;72.28;100004.03;5084009;28;20077;-65
2021/05/08 00:53:23;;;;;;;10.43;6.70;;;;;;;3.09;72.38;100008.28;5083845;28;20096;-65
2021/05/08 00:55:50;;;;;;;9.00;6.18;;;;;;;3.04;72.57;100003.06;5084181;28;20020;-64
2021/05/08 00:58:17;;;;;;;9.07;5.95;;;;;;;3.03;72.95;100009.06;5084039;28;20024;-66
2021/05/08 01:00:43;;;;;;;11.77;6.60;;;;;;;2.98;73.05;100005.53;5083829;28;20596;-64
2021/05/08 01:03:08;;;;;;;9.75;6.65;;;;;;;2.93;73.03;100008.03;5083965;28;20088;-65
2021/05/08 01:05:36;;;;;;;10.27;6.28;;;;;;;2.93;73.06;100002.91;5083898;28;20021;-67
2021/05/08 01:08:03;;;;;;;8.10;5.78;;;;;;;2.95;73.32;100011.50;5083782;28;20086;-65
2021/05/08 01:10:29;;;;;;;9.20;5.97;;;;;;;3.01;73.60;100009.84;5083717;28;20029;-66
2021/05/08 01:12:59;;;;;;;8.93;5.78;;;;;;;3.13;73.98;100009.19;5083922;28;20387;-66
2021/05/08 01:15:25;;;;;;;7.53;5.63;;;;;;;3.24;73.92;100011.94;5083726;28;20021;-65
2021/05/08 01:17:52;;;;;;;7.75;5.40;;;;;;;3.36;73.85;100014.66;5083606;28;20043;-65
2021/05/08 01:20:18;;;;;;;6.30;5.28;;;;;;;3.43;73.75;100018.19;5083658;28;20035;-66
2021/05/08 01:22:44;;;;;;;10.40;6.60;;;;;;;3.50;73.89;100017.44;5082361;28;20222;-64
2021/05/08 01:25:13;;;;;;;7.60;5.30;;;;;;;3.57;73.98;100011.56;5082367;28;20031;-65
2021/05/08 01:27:48;;;;;;;9.00;5.63;;;;;;;3.66;74.20;100010.81;5083612;28;20024;-66
2021/05/08 01:30:18;;;;;;;6.50;4.78;;;;;;;3.75;74.21;100012.66;5083335;28;20085;-64
2021/05/08 01:32:44;;;;;;;7.97;5.28;;;;;;;3.83;74.17;100013.59;5083628;28;20031;-66
2021/05/08 01:35:10;;;;;;;8.40;5.85;;;;;;;3.91;74.39;100013.72;5083601;28;20029;-66
2021/05/08 01:37:36;;;;;;;9.02;5.10;;;;;;;3.95;74.25;100012.91;5083577;28;20244;-66
2021/05/08 01:40:06;;;;;;;7.85;5.05;;;;;;;3.96;74.15;100016.34;5083430;28;20740;-66
2021/05/08 01:42:34;;;;;;;8.27;5.30;;;;;;;3.94;74.47;100018.91;5083363;28;20052;-65
2021/05/08 01:45:18;;;;;;;7.70;5.50;;;;;;;3.94;74.10;100026.59;5082849;28;20107;-64
2021/05/08 01:47:44;;;;;;;8.93;5.55;;;;;;;3.92;74.14;100022.25;5083257;28;20090;-66
2021/05/08 01:50:12;;;;;;;7.53;5.30;;;;;;;3.92;74.15;100027.41;5083481;28;20425;-66
2021/05/08 01:52:39;;;;;;;7.07;5.50;;;;;;;3.93;74.14;100024.84;5083058;28;20032;-66
2021/05/08 01:55:16;;;;;;;10.27;5.82;;;;;;;3.94;74.27;100026.59;5083348;28;20098;-66
2021/05/08 01:57:47;;;;;;;8.40;5.32;;;;;;;3.94;74.45;100023.16;5083853;28;20024;-66
2021/05/08 02:00:21;;;;;;;9.13;5.28;;;;;;;3.99;74.65;100023.22;5082711;28;20044;-64
2021/05/08 02:02:48;;;;;;;8.93;5.88;;;;;;;4.03;74.47;100024.97;5083170;28;20193;-66
2021/05/08 02:05:14;;;;;;;11.43;5.85;;;;;;;4.04;74.26;100022.41;5083311;28;20035;-65
2021/05/08 02:07:39;;;;;;;7.00;5.03;;;;;;;3.99;74.05;100026.66;5083227;28;20020;-66
2021/05/08 02:10:07;;;;;;;7.30;5.25;;;;;;;3.93;74.05;100029.16;5083197;28;20055;-66
2021/05/08 02:12:33;;;;;;;10.50;5.90;;;;;;;3.83;73.82;100030.72;5082996;28;20028;-65
2021/05/08 02:14:59;;;;;;;8.65;6.13;;;;;;;3.74;73.85;100021.19;5083327;28;20353;-65
2021/05/08 02:17:24;;;;;;;10.07;6.78;;;;;;;3.65;74.05;100016.81;5082830;28;20021;-66
2021/05/08 02:19:50;;;;;;;9.20;6.10;;;;;;;3.57;74.04;100024.41;5083212;28;20449;-66
2021/05/08 02:22:17;;;;;;;8.13;6.38;;;;;;;3.49;73.94;100022.53;5081519;28;20021;-65
2021/05/08 02:24:43;;;;;;;11.43;6.93;;;;;;;3.40;74.04;100020.72;5082950;28;20139;-66
2021/05/08 02:27:09;;;;;;;9.80;6.50;;;;;;;3.35;73.88;100030.91;5082941;28;20397;-66
2021/05/08 02:29:34;;;;;;;12.68;7.32;;;;;;;3.24;73.89;100024.75;5082702;28;20024;-66
2021/05/08 02:32:00;;;;;;;9.48;6.60;;;;;;;3.15;73.65;100021.19;5082642;28;20461;-65
2021/05/08 02:34:25;;;;;;;11.55;6.93;;;;;;;3.06;73.78;100028.75;5082743;28;20040;-64
2021/05/08 02:36:53;;;;;;;11.55;7.32;;;;;;;2.92;74.49;100021.72;5082826;28;20021;-60
2021/05/08 02:39:20;;;;;;;16.13;7.80;;;;;;;2.83;75.29;100036.91;5082622;28;20381;-61
2021/05/08 02:41:45;;;;;;;14.23;8.23;;;;;;;2.81;75.32;100029.19;5082383;28;20055;-61
2021/05/08 02:44:10;;;;;;;11.80;7.93;;;;;;;2.84;75.55;100024.13;5082721;28;20028;-65
2021/05/08 02:46:36;;;;;;;15.70;8.15;;;;;;;2.89;75.22;100031.03;5082107;28;20483;-61
2021/05/08 02:49:01;;;;;;;18.13;8.60;;;;;;;2.93;75.15;100028.56;5082401;28;20021;-60
2021/05/08 02:51:27;;;;;;;13.85;8.32;;;;;;;2.95;75.18;100037.13;5082365;28;20052;-60
2021/05/08 02:53:52;;;;;;;15.38;8.68;;;;;;;2.98;75.24;100028.63;5082346;28;20059;-61
2021/05/08 02:56:17;;;;;;;16.08;8.77;;;;;;;3.02;75.11;100026.97;5082399;28;20020;-61
2021/05/08 02:58:43;;;;;;;13.15;8.50;;;;;;;3.06;75.16;100028.75;5084819;28;20048;-61
2021/05/08 03:01:08;;;;;;;13.57;8.52;;;;;;;3.07;75.28;100025.34;5085684;28;20067;-61
2021/05/08 03:03:33;;;;;;;11.85;7.53;;;;;;;3.08;75.45;100024.50;5084767;28;20472;-61
2021/05/08 03:05:59;;;;;;;11.30;7.22;;;;;;;3.09;75.43;100028.78;5086047;28;20084;-60
2021/05/08 03:08:24;;;;;;;12.05;6.97;;;;;;;3.09;75.77;100018.53;5085978;28;20032;-60
2021/05/08 03:10:49;;;;;;;12.40;7.75;;;;;;;3.13;75.68;100025.44;5085941;28;20032;-61
2021/05/08 03:13:15;;;;;;;13.20;7.07;;;;;;;3.19;75.73;100019.56;5085763;28;20055;-60
2021/05/08 03:15:40;;;;;;;11.95;7.20;;;;;;;3.27;75.67;100017.97;5085347;28;20029;-60
2021/05/08 03:18:05;;;;;;;12.27;7.35;;;;;;;3.35;75.61;100023.22;5085850;28;20063;-61
2021/05/08 03:20:31;;;;;;;10.35;6.70;;;;;;;3.43;75.58;100019.06;5085695;28;20021;-61
2021/05/08 03:22:56;;;;;;;9.98;6.70;;;;;;;3.58;75.70;100020.09;5085667;28;20034;-60
2021/05/08 03:25:21;;;;;;;10.80;6.82;;;;;;;3.75;75.82;100015.22;5085942;28;20050;-63
2021/05/08 03:27:47;;;;;;;7.90;5.43;;;;;;;3.95;75.60;100018.03;5085339;28;20032;-61
2021/05/08 03:30:13;;;;;;;8.85;5.53;;;;;;;4.18;75.64;100030.31;5084018;28;20469;-61
2021/05/08 03:32:38;;;;;;;8.45;5.85;;;;;;;4.41;76.12;100031.41;5085340;28;20056;-61
2021/05/08 03:35:04;;;;;;;8.45;4.65;;;;;;;4.73;76.36;100033.44;5085364;28;20052;-59
2021/05/08 03:37:30;;;;;;;7.18;4.78;;;;;;;5.07;76.59;100035.44;5085228;28;20025;-61
2021/05/08 03:39:55;;;;;;;9.25;5.18;;;;;;;5.38;76.08;100037.41;5085400;28;20020;-58
2021/05/08 03:42:21;;;;;;;6.10;3.72;;;;;;;5.78;76.60;100036.78;5083806;28;20021;-59
2021/05/08 03:44:46;;;;;;;6.78;3.90;;;;;;;6.13;75.85;100043.00;5085239;28;20035;-59
2021/05/08 03:47:12;;;;;;;7.93;4.05;;;;;;;6.41;75.07;100046.53;5084863;28;20051;-60
2021/05/08 03:49:38;;;;;;;9.32;4.30;;;;;;;6.51;74.15;100042.25;5085030;28;20039;-60
2021/05/08 03:52:04;;;;;;;6.30;3.60;;;;;;;6.61;73.78;100042.28;5085105;28;20084;-59
2021/05/08 03:54:30;;;;;;;4.95;3.70;;;;;;;6.85;73.53;100043.19;5085217;28;20028;-59
2021/05/08 03:56:57;;;;;;;5.68;3.67;;;;;;;7.14;73.54;100042.34;5085186;28;20048;-60
2021/05/08 03:59:22;;;;;;;7.20;3.58;;;;;;;7.50;72.85;100040.59;5084851;28;20051;-60
2021/05/08 04:01:48;;;;;;;4.70;3.50;;;;;;;7.88;71.99;100037.88;5084712;28;20122;-61
2021/05/08 04:04:13;;;;;;;6.13;3.20;;;;;;;8.21;71.27;100045.53;5084831;28;20146;-60
2021/05/08 04:06:38;;;;;;;5.75;3.35;;;;;;;8.51;70.09;100054.00;5084708;28;20016;-60
2021/05/08 04:09:07;;;;;;;7.00;3.85;;;;;;;8.76;69.48;100039.22;5084416;28;20028;-65
2021/05/08 04:11:34;;;;;;;5.43;3.50;;;;;;;9.07;69.01;100040.72;5085040;28;20048;-66
2021/05/08 04:13:59;;;;;;;5.03;3.42;;;;;;;9.40;67.93;100045.63;5084983;28;20076;-65
2021/05/08 04:16:24;;;;;;;6.22;3.60;;;;;;;9.65;66.85;100054.00;5084581;28;20032;-65
2021/05/08 04:18:50;;;;;;;5.93;4.13;;;;;;;9.85;65.54;100047.75;5084942;28;20032;-65
2021/05/08 04:21:15;;;;;;;6.10;3.75;;;;;;;10.06;65.29;100044.91;5084826;28;20024;-65
2021/05/08 04:23:40;;;;;;;5.47;3.67;;;;;;;10.22;64.16;100053.38;5084400;28;20020;-65
2021/05/08 04:26:06;;;;;;;6.45;3.58;;;;;;;10.33;64.01;100054.09;5084419;28;20062;-65
2021/05/08 04:28:31;;;;;;;4.60;3.50;;;;;;;10.66;63.62;100051.06;5085100;28;20028;-66
2021/05/08 04:30:56;;;;;;;5.60;3.50;;;;;;;11.05;61.35;100053.09;5084739;28;20035;-65
2021/05/08 04:33:22;;;;;;;4.00;3.28;;;;;;;11.28;60.49;100052.72;5084704;28;20028;-65
2021/05/08 04:35:47;;;;;;;4.55;3.45;;;;;;;11.48;59.91;100050.66;5085057;28;20097;-66
2021/05/08 04:38:13;;;;;;;6.35;3.40;;;;;;;11.53;58.84;100049.66;5084998;28;20021;-65
2021/05/08 04:40:38;;;;;;;6.05;3.60;;;;;;;11.18;57.49;100053.75;5084817;28;20104;-66
2021/05/08 04:43:04;;;;;;;5.85;4.00;;;;;;;10.70;58.11;100057.09;5084850;28;20016;-65
2021/05/08 04:45:29;;;;;;;8.68;3.47;;;;;;;10.79;58.45;100056.94;5084679;28;20040;-64
2021/05/08 04:47:56;;;;;;;4.45;3.22;;;;;;;11.13;57.60;100056.41;5084618;28;20017;-65
2021/05/08 04:50:26;;;;;;;4.88;3.45;;;;;;;11.52;57.85;100058.38;5084810;28;20020;-65
2021/05/08 04:52:52;;;;;;;5.22;3.08;;;;;;;11.67;55.81;100055.50;5084555;28;20025;-65
2021/05/08 04:55:18;;;;;;;5.03;3.50;;;;;;;11.77;55.83;100059.66;5084471;28;20038;-66
2021/05/08 04:57:44;;;;;;;3.85;3.33;;;;;;;12.16;56.26;100069.31;5084454;28;20020;-66
2021/05/08 05:00:13;;;;;;;5.35;2.75;;;;;;;12.66;54.39;100068.28;5084105;28;20094;-64
2021/05/08 05:02:43;;;;;;;6.60;2.92;;;;;;;12.76;53.50;100054.13;5084262;28;20044;-65
2021/05/08 05:05:12;;;;;;;4.95;3.22;;;;;;;12.82;53.72;100067.91;5084204;28;20563;-66
2021/05/08 05:07:47;;;;;;;5.00;3.22;;;;;;;13.25;53.35;100071.25;5084245;28;20044;-65
2021/05/08 05:10:14;;;;;;;5.43;3.03;;;;;;;13.55;52.02;100074.00;5084202;28;20111;-66
2021/05/08 05:12:40;;;;;;;7.70;2.80;;;;;;;13.82;51.16;100074.16;5083861;28;20016;-66
2021/05/08 05:15:07;;;;;;;6.25;3.38;;;;;;;14.17;50.71;100070.59;5084206;28;20040;-66
2021/05/08 05:17:32;;;;;;;7.97;2.50;;;;;;;14.63;49.73;100074.44;5083680;28;20587;-66
2021/05/08 05:19:58;;;;;;;6.95;2.97;;;;;;;15.14;49.77;100072.91;5083683;28;20020;-65
2021/05/08 05:22:23;;;;;;;4.85;2.20;;;;;;;15.58;48.08;100067.06;5083637;28;20052;-63
2021/05/08 05:24:48;;;;;;;4.90;2.60;;;;;;;16.34;47.23;100077.47;5083880;28;20017;-65
2021/05/08 05:27:14;;;;;;;5.65;2.50;;;;;;;16.98;45.31;100076.78;5083701;28;20082;-66
2021/05/08 05:29:39;;;;;;;7.32;3.65;;;;;;;17.61;44.35;100074.22;5083445;28;20488;-66
2021/05/08 05:32:05;;;;;;;6.05;2.25;;;;;;;17.96;43.19;100072.66;5083085;28;20021;-65
2021/05/08 05:34:30;;;;;;;5.13;2.38;;;;;;;18.36;41.67;100078.81;5083506;28;20054;-66
2021/05/08 05:36:56;;;;;;;4.85;2.17;;;;;;;18.80;41.01;100082.91;5083386;28;20062;-66
2021/05/08 05:39:21;;;;;;;4.65;1.95;;;;;;;19.29;39.84;100074.41;5083183;28;20454;-65
2021/05/08 05:41:46;;;;;;;5.25;2.10;;;;;;;19.82;38.91;100079.59;5083312;28;20069;-66
2021/05/08 05:44:12;;;;;;;4.82;2.03;;;;;;;20.22;36.29;100094.25;5083179;28;20115;-65
2021/05/08 05:46:37;;;;;;;3.85;1.95;;;;;;;20.30;35.85;100084.13;5082732;28;20027;-66
2021/05/08 05:49:03;;;;;;;7.40;2.08;;;;;;;19.87;35.82;100087.25;5083227;28;20020;-65
2021/05/08 05:51:28;;;;;;;5.20;2.50;;;;;;;18.93;35.81;100088.44;5083346;28;20070;-65
2021/05/08 05:53:56;;;;;;;5.90;2.20;;;;;;;17.73;37.45;100089.44;5083077;28;20052;-65
2021/05/08 05:56:26;;;;;;;4.30;2.15;;;;;;;16.72;39.55;100095.22;5083015;28;20046;-65
2021/05/08 05:58:52;;;;;;;6.32;2.70;;;;;;;16.73;40.50;100101.34;5082985;28;20034;-66
2021/05/08 06:01:17;;;;;;;6.32;2.15;;;;;;;16.97;40.47;100090.78;5082737;28;20104;-64
2021/05/08 06:03:42;;;;;;;9.55;2.53;;;;;;;17.37;40.04;100097.94;5083031;28;20013;-66
2021/05/08 06:06:08;;;;;;;7.20;2.10;;;;;;;17.90;38.99;100095.72;5083134;28;20055;-65
2021/05/08 06:08:33;;;;;;;6.13;2.08;;;;;;;18.40;38.40;100096.16;5083232;28;20473;-67
2021/05/08 06:10:58;;;;;;;5.15;2.05;;;;;;;18.84;37.39;100100.22;5082787;28;20181;-67
2021/05/08 06:13:24;;;;;;;6.68;2.15;;;;;;;19.30;37.05;100105.03;5082500;28;20021;-67
2021/05/08 06:15:49;;;;;;;4.43;2.42;;;;;;;19.73;35.39;100085.34;5082575;28;20021;-66
2021/05/08 06:18:15;;;;;;;7.75;2.25;;;;;;;19.63;35.09;100099.94;5082649;28;20125;-66
2021/05/08 06:20:40;;;;;;;5.72;2.13;;;;;;;19.07;34.95;100106.16;5082974;28;20021;-66
2021/05/08 06:23:05;;;;;;;5.47;1.92;;;;;;;18.81;35.88;100117.03;5082724;28;20029;-68
2021/05/08 06:25:31;;;;;;;6.25;2.28;;;;;;;18.92;35.58;100110.38;5082995;28;20065;-66
2021/05/08 06:27:56;;;;;;;9.50;2.55;;;;;;;18.98;35.33;100109.25;5082813;28;20063;-66
2021/05/08 06:30:21;;;;;;;9.60;2.45;;;;;;;18.73;35.00;100119.16;5082687;28;20025;-65
2021/05/08 06:32:47;;;;;;;6.65;2.03;;;;;;;18.17;35.75;100112.06;5085502;28;20092;-65
2021/05/08 06:35:12;;;;;;;7.88;3.00;;;;;;;17.55;36.98;100117.31;5086813;28;20082;-65
2021/05/08 06:37:39;;;;;;;8.93;2.20;;;;;;;17.52;37.99;100110.44;5087166;28;20031;-66
2021/05/08 06:40:05;;;;;;;5.47;2.00;;;;;;;17.56;37.05;100117.25;5087255;28;20361;-65
2021/05/08 06:42:31;;;;;;;9.32;2.88;;;;;;;17.15;37.09;100125.09;5087010;28;20074;-64
2021/05/08 06:44:56;;;;;;;9.15;2.38;;;;;;;16.59;38.28;100126.31;5086859;28;20031;-65
2021/05/08 06:47:22;;;;;;;6.45;2.17;;;;;;;16.85;38.72;100124.44;5086344;28;20025;-69
2021/05/08 06:49:47;;;;;;;7.10;2.42;;;;;;;17.19;37.25;100126.66;5086885;28;20067;-67
2021/05/08 06:52:13;;;;;;;9.68;2.90;;;;;;;16.76;37.27;100121.34;5086885;28;20025;-65
2021/05/08 06:54:38;;;;;;;11.43;2.60;;;;;;;16.11;38.37;100133.31;5086909;28;20055;-69
2021/05/08 06:57:07;;;;;;;11.40;2.90;;;;;;;15.59;39.70;100135.03;5085592;28;20020;-64
2021/05/08 06:59:32;;;;;;;8.05;2.90;;;;;;;15.11;40.34;100131.41;5086383;28;20106;-70
2021/05/08 07:01:58;;;;;;;7.38;2.35;;;;;;;14.41;41.28;100130.84;5086472;28;20028;-69
2021/05/08 07:04:23;;;;;;;8.57;2.10;;;;;;;13.74;42.55;100141.31;5085382;28;20384;-66
2021/05/08 07:06:49;;;;;;;8.95;3.08;;;;;;;13.55;43.70;100140.94;5086877;28;20027;-68
2021/05/08 07:09:14;;;;;;;9.57;3.63;;;;;;;13.37;44.40;100146.53;5086779;28;20032;-68
2021/05/08 07:11:40;;;;;;;7.50;2.60;;;;;;;13.17;44.83;100141.81;5086612;28;20031;-68
2021/05/08 07:14:05;;;;;;;7.00;2.33;;;;;;;12.91;45.94;100148.47;5086648;28;20031;-68
2021/05/08 07:16:30;;;;;;;9.60;2.92;;;;;;;13.14;46.69;100150.56;5086045;28;20111;-70
2021/05/08 07:18:56;;;;;;;10.30;3.17;;;;;;;13.74;45.74;100146.53;5086176;28;20031;-70
2021/05/08 07:21:21;;;;;;;7.30;2.22;;;;;;;13.99;44.10;100151.97;5086556;28;20038;-70
2021/05/08 07:23:46;;;;;;;6.20;2.38;;;;;;;13.62;43.78;100138.16;5086267;28;20578;-70
2021/05/08 07:26:12;;;;;;;9.85;3.30;;;;;;;13.41;44.24;100144.72;5086237;28;20016;-70
2021/05/08 07:28:37;;;;;;;9.82;2.45;;;;;;;13.22;45.34;100157.34;5086220;28;20024;-69
2021/05/08 07:31:03;;;;;;;9.38;2.30;;;;;;;13.61;45.34;100153.84;5086021;28;20369;-69
2021/05/08 07:33:29;;;;;;;16.20;2.92;;;;;;;14.47;44.67;100165.44;5086203;28;20032;-68
2021/05/08 07:35:54;;;;;;;7.72;2.45;;;;;;;15.31;43.00;100158.66;5086299;28;20021;-68
2021/05/08 07:38:20;;;;;;;7.45;2.40;;;;;;;15.57;40.91;100173.50;5085988;28;20024;-68
2021/05/08 07:40:49;;;;;;;13.98;3.50;;;;;;;15.29;41.25;100174.38;5085830;28;20086;-68
2021/05/08 07:43:17;;;;;;;11.07;2.55;;;;;;;14.92;42.25;100172.94;5085112;28;20031;-68
2021/05/08 07:45:42;;;;;;;8.75;2.58;;;;;;;15.05;42.50;100171.66;5085486;28;20048;-67
2021/05/08 07:48:08;;;;;;;5.55;2.38;;;;;;;15.55;42.47;100162.22;5085703;28;20054;-68
2021/05/08 07:50:33;;;;;;;6.82;1.92;;;;;;;16.42;40.23;100168.03;5085724;28;20020;-67
2021/05/08 07:52:59;;;;;;;10.60;2.58;;;;;;;17.16;38.48;100171.38;5085332;28;20020;-68
2021/05/08 07:55:25;;;;;;;8.48;2.70;;;;;;;16.71;36.95;100169.53;5085730;28;20053;-65
2021/05/08 07:57:51;;;;;;;9.02;2.60;;;;;;;15.85;38.62;100169.09;5085332;28;20020;-66
2021/05/08 08:00:18;;;;;;;4.07;2.20;;;;;;;15.27;39.94;100172.75;5083684;28;20107;-65
2021/05/08 08:02:44;;;;;;;13.10;2.50;;;;;;;15.39;39.14;100171.47;5084669;28;20032;-64
2021/05/08 08:05:11;;;;;;;12.25;3.47;;;;;;;15.24;39.38;100176.28;5085071;28;20024;-65
2021/05/08 08:07:36;;;;;;;8.63;2.85;;;;;;;15.05;39.41;100168.19;5085352;28;20206;-65
2021/05/08 08:10:04;;;;;;;14.23;2.90;;;;;;;14.55;40.47;100174.84;5085128;28;20037;-64
2021/05/08 08:12:30;;;;;;;9.40;2.88;;;;;;;14.36;41.83;100181.44;5085093;28;20095;-64
2021/05/08 08:14:55;;;;;;;9.00;2.60;;;;;;;14.82;41.06;100181.06;5084741;28;20025;-64
2021/05/08 08:17:20;;;;;;;8.02;2.42;;;;;;;14.80;39.98;100185.47;5084452;28;20017;-64
2021/05/08 08:19:47;;;;;;;5.63;2.50;;;;;;;14.10;41.08;100180.41;5084626;28;20056;-65
2021/05/08 08:22:16;;;;;;;8.38;2.85;;;;;;;13.31;42.59;100187.53;5083577;28;20024;-65
2021/05/08 08:24:43;;;;;;;6.70;2.17;;;;;;;12.76;44.43;100189.59;5084850;28;20028;-66
2021/05/08 08:27:08;;;;;;;6.82;2.20;;;;;;;12.91;44.61;100197.13;5084830;28;20103;-66
2021/05/08 08:29:34;;;;;;;12.95;2.58;;;;;;;12.76;44.08;100194.78;5085265;28;20016;-65
2021/05/08 08:31:59;;;;;;;7.22;2.58;;;;;;;12.82;44.85;100199.03;5084920;28;20025;-65
2021/05/08 08:34:24;;;;;;;10.52;3.00;;;;;;;12.64;45.46;100195.06;5084980;28;20028;-65
2021/05/08 08:36:50;;;;;;;9.55;2.65;;;;;;;12.55;45.38;100205.66;5085036;28;20056;-64
2021/05/08 08:39:15;;;;;;;9.90;2.72;;;;;;;12.38;45.90;100201.66;5084951;28;20528;-65
2021/05/08 08:41:42;;;;;;;8.63;2.53;;;;;;;12.12;46.42;100198.63;5084958;28;20031;-65
2021/05/08 08:44:10;;;;;;;7.00;2.45;;;;;;;11.89;47.16;100204.22;5084680;28;20091;-65
2021/05/08 08:46:46;;;;;;;8.68;2.53;;;;;;;11.63;48.02;100205.50;5084107;28;20027;-65
2021/05/08 08:49:13;;;;;;;7.97;2.33;;;;;;;11.43;48.38;100209.28;5084566;28;20029;-65
2021/05/08 08:51:39;;;;;;;8.50;3.38;;;;;;;11.24;48.66;100211.31;5084680;28;20028;-66
2021/05/08 08:54:05;;;;;;;10.50;2.65;;;;;;;11.11;49.23;100213.22;5084394;28;20087;-65
2021/05/08 08:56:39;;;;;;;11.30;3.08;;;;;;;10.88;49.87;100212.63;5083578;28;20036;-65
2021/05/08 08:59:14;;;;;;;9.23;2.85;;;;;;;10.73;50.69;100212.84;5084245;28;20048;-64
2021/05/08 09:01:41;;;;;;;14.00;3.13;;;;;;;10.76;50.80;100218.00;5083919;28;20480;-65
2021/05/08 09:04:07;;;;;;;15.13;2.90;;;;;;;10.84;50.96;100215.28;5084125;28;20092;-66
2021/05/08 09:06:34;;;;;;;10.57;3.58;;;;;;;10.92;50.19;100218.66;5084207;28;20075;-66
2021/05/08 09:09:00;;;;;;;8.23;3.08;;;;;;;10.89;50.69;100224.72;5084378;28;20028;-65
2021/05/08 09:11:25;;;;;;;7.72;2.75;;;;;;;10.76;51.08;100228.38;5084121;28;20569;-66
2021/05/08 09:14:15;;;;;;;7.00;2.22;;;;;;;10.66;51.18;100219.81;5083892;28;20020;-65
2021/05/08 09:17:18;;;;;;;8.98;3.00;;;;;;;10.83;51.38;100229.16;5083761;28;20052;-66
2021/05/08 09:19:46;;;;;;;6.72;2.47;;;;;;;11.26;51.02;100217.34;5084149;28;20021;-65
2021/05/08 09:22:27;;;;;;;7.60;2.65;;;;;;;11.69;49.33;100233.16;5083983;28;20123;-66
2021/05/08 09:25:11;;;;;;;11.23;3.92;;;;;;;11.74;48.86;100224.41;5082494;28;20413;-66
2021/05/08 09:27:48;;;;;;;9.15;2.60;;;;;;;11.74;48.46;100224.41;5083557;28;20032;-65
2021/05/08 09:30:15;;;;;;;8.93;2.60;;;;;;;11.78;48.43;100220.00;5083972;28;20071;-66
2021/05/08 09:32:47;;;;;;;7.95;3.25;;;;;;;11.61;48.66;100228.09;5083212;28;20044;-64
2021/05/08 09:35:26;;;;;;;8.93;2.97;;;;;;;11.43;48.91;100237.88;5084025;28;20020;-66
2021/05/08 09:38:07;;;;;;;6.82;2.92;;;;;;;11.27;49.47;100230.31;5083524;28;20025;-65
2021/05/08 09:40:38;;;;;;;11.63;3.08;;;;;;;11.18;50.25;100237.38;5083791;28;20051;-66
2021/05/08 09:43:12;;;;;;;11.00;3.40;;;;;;;11.69;51.11;100230.56;5082246;28;20024;-64
2021/05/08 09:45:40;;;;;;;8.82;2.90;;;;;;;13.25;48.97;100228.53;5083593;28;20078;-65
2021/05/08 09:48:18;;;;;;;9.85;3.10;;;;;;;14.30;45.82;100214.69;5083362;28;20097;-65
2021/05/08 09:50:43;;;;;;;9.65;3.00;;;;;;;15.34;43.13;100224.78;5083719;28;20036;-65
2021/05/08 09:53:09;;;;;;;9.40;2.92;;;;;;;15.88;41.70;100220.50;5083277;28;20044;-64
2021/05/08 09:55:34;;;;;;;10.52;2.72;;;;;;;15.74;40.87;100229.66;5083486;28;20020;-66
2021/05/08 09:58:08;;;;;;;11.73;2.88;;;;;;;15.85;40.63;100222.31;5083790;28;20024;-66
2021/05/08 10:00:38;;;;;;;9.00;2.95;;;;;;;16.95;39.21;100221.09;5083544;28;20040;-64
2021/05/08 10:03:07;;;;;;;7.40;3.00;;;;;;;17.78;36.71;100223.16;5083681;28;20037;-66
2021/05/08 10:05:33;;;;;;;10.25;3.13;;;;;;;18.08;35.72;100220.97;5083776;28;20025;-65
2021/05/08 10:07:59;;;;;;;10.32;2.83;;;;;;;18.57;34.45;100211.91;5085288;28;20025;-66
2021/05/08 10:10:25;;;;;;;6.53;2.60;;;;;;;18.63;33.80;100220.41;5087765;28;20035;-66
2021/05/08 10:12:51;;;;;;;7.03;2.65;;;;;;;17.88;33.25;100215.72;5087605;28;20024;-65
2021/05/08 10:15:17;;;;;;;8.00;2.35;;;;;;;17.62;33.63;100218.50;5087393;28;20031;-66
2021/05/08 10:17:48;;;;;;;5.60;2.40;;;;;;;17.43;34.26;100219.25;5087205;28;20400;-66
2021/05/08 10:20:15;;;;;;;4.25;2.13;;;;;;;17.91;34.14;100218.22;5087508;28;20024;-66
2021/05/08 10:23:04;;;;;;;9.63;2.90;;;;;;;17.81;31.83;100213.34;5087468;28;20033;-65
2021/05/08 10:25:29;;;;;;;7.03;3.08;;;;;;;17.15;32.25;100211.63;5087266;28;20016;-66
2021/05/08 10:27:55;;;;;;;6.78;2.60;;;;;;;17.48;33.39;100216.44;5087260;28;20481;-65
2021/05/08 10:30:25;;;;;;;3.97;2.10;;;;;;;18.25;30.09;100219.44;5087520;28;20035;-65
2021/05/08 10:32:51;;;;;;;5.22;2.88;;;;;;;18.53;29.46;100215.56;5087025;28;20053;-64
2021/05/08 10:35:43;;;;;;;4.68;2.45;;;;;;;18.11;30.20;100211.25;5087499;28;20028;-65
2021/05/08 10:38:10;;;;;;;;;;;;;;;18.13;31.54;100220.81;5087851;28;20051;-66
2021/05/08 10:40:59;;;;;;;6.47;2.08;;;;;;;18.51;30.98;100213.94;5087319;28;19908;-66
2021/05/08 10:43:38;;;;;;;4.38;2.28;;;;;;;18.18;30.78;100225.84;5087012;28;20084;-65
2021/05/08 10:46:04;;;;;;;5.10;1.90;;;;;;;17.25;30.15;100226.13;5087369;28;20040;-66
2021/05/08 10:48:30;;;;;;;7.60;2.40;;;;;;;16.32;31.94;100226.00;5086779;28;20036;-66
2021/05/08 10:50:59;;;;;;;4.93;2.90;;;;;;;16.07;33.39;100226.84;5086955;28;20032;-66
2021/05/08 10:53:51;;;;;;;5.13;2.35;;;;;;;15.47;34.63;100227.03;5086549;28;20092;-66
2021/05/08 10:56:33;;;;;;;8.30;2.88;;;;;;;15.40;35.93;100233.38;5082550;28;20040;-66
2021/05/08 10:59:09;;;;;;;23.98;3.10;;;;;;;15.01;36.90;100232.78;5086573;28;20031;-65
2021/05/08 11:01:44;;;;;;;7.60;2.90;;;;;;;14.34;38.80;100232.88;5086498;28;20036;-65
2021/05/08 11:04:11;;;;;;;10.38;3.72;;;;;;;13.91;40.41;100241.81;5086314;28;20032;-66
2021/05/08 11:06:36;;;;;;;10.27;3.30;;;;;;;13.46;41.40;100239.34;5086541;28;20095;-64
2021/05/08 11:09:04;;;;;;;9.80;4.72;;;;;;;13.16;42.20;100244.38;5086492;28;20032;-65
2021/05/08 11:11:49;;;;;;;12.88;4.78;;;;;;;12.64;43.47;100235.00;5086396;28;20017;-65
2021/05/08 11:14:15;;;;;;;8.93;3.60;;;;;;;12.44;44.42;100237.13;5086481;28;20393;-64
2021/05/08 11:16:55;;;;;;;11.43;4.68;;;;;;;12.17;45.58;100242.81;5086089;28;20328;-64
2021/05/08 11:19:23;;;;;;;10.23;5.18;;;;;;;11.98;46.54;100237.03;5083857;28;20048;-65
2021/05/08 11:21:49;;;;;;;11.20;4.38;;;;;;;11.87;47.27;100240.66;5086329;28;20028;-64
2021/05/08 11:24:32;;;;;;;7.30;4.00;;;;;;;11.88;47.55;100232.00;5085866;28;20078;-65
2021/05/08 11:26:58;;;;;;;14.38;4.55;;;;;;;11.90;47.80;100226.78;5085769;28;20033;-65